createdAt,value
2017-10-28T00:00:47.366Z,85.25
2017-10-28T00:01:53.194Z,85.40
2017-10-28T00:03:00.136Z,85.43
2017-10-28T00:04:05.959Z,85.15
2017-10-28T00:05:11.990Z,85.54
2017-10-28T00:06:18.052Z,85.97
2017-10-28T00:07:24.109Z,85.98
2017-10-28T00:08:30.140Z,85.82
2017-10-28T00:09:36.187Z,85.53
2017-10-28T00:10:43.163Z,85.30
2017-10-28T00:11:51.028Z,85.34
2017-10-28T00:12:57.078Z,85.52
2017-10-28T00:14:05.413Z,85.41
2017-10-28T00:15:16.487Z,85.61
2017-10-28T00:16:22.510Z,85.54
2017-10-28T00:17:28.576Z,85.26
2017-10-28T00:18:34.610Z,85.27
2017-10-28T00:19:40.731Z,85.52
2017-10-28T00:20:46.773Z,85.44
2017-10-28T00:21:53.062Z,86.12
2017-10-28T00:22:59.128Z,85.55
2017-10-28T00:24:04.853Z,85.78
2017-10-28T00:25:10.692Z,85.94
2017-10-28T00:26:16.549Z,85.92
2017-10-28T00:27:22.610Z,86.20
2017-10-28T00:28:28.665Z,86.75
2017-10-28T00:29:34.701Z,86.60
2017-10-28T00:30:46.203Z,86.26
2017-10-28T00:31:57.632Z,86.32
2017-10-28T00:33:09.385Z,85.99
2017-10-28T00:34:20.081Z,85.39
2017-10-28T00:35:31.602Z,85.37
2017-10-28T00:36:37.260Z,85.42
2017-10-28T00:37:43.339Z,85.49
2017-10-28T00:38:49.356Z,86.29
2017-10-28T00:39:55.409Z,86.35
2017-10-28T00:41:01.466Z,86.06
2017-10-28T00:42:07.180Z,85.61
2017-10-28T00:43:13.201Z,85.66
2017-10-28T00:44:19.220Z,85.54
2017-10-28T00:45:25.242Z,85.83
2017-10-28T00:46:31.253Z,86.30
2017-10-28T00:47:37.332Z,86.14
2017-10-28T00:48:43.408Z,86.63
2017-10-28T00:49:49.428Z,86.43
2017-10-28T00:50:55.286Z,85.83
2017-10-28T00:52:01.328Z,85.61
2017-10-28T00:53:08.352Z,85.27
2017-10-28T00:54:14.372Z,85.03
2017-10-28T00:55:20.417Z,84.90
2017-10-28T00:56:26.734Z,84.84
2017-10-28T00:57:32.485Z,85.12
2017-10-28T00:58:38.544Z,85.82
2017-10-28T00:59:44.567Z,85.26
2017-10-28T01:00:50.224Z,85.52
2017-10-28T01:01:56.251Z,85.46
2017-10-28T01:03:02.301Z,84.94
2017-10-28T01:04:08.158Z,84.83
2017-10-28T01:05:14.205Z,85.09
2017-10-28T01:06:20.231Z,84.76
2017-10-28T01:07:26.293Z,85.21
2017-10-28T01:08:32.332Z,85.69
2017-10-28T01:09:38.378Z,85.50
2017-10-28T01:10:44.428Z,85.88
2017-10-28T01:11:50.442Z,86.06
2017-10-28T01:12:56.489Z,86.31
2017-10-28T01:14:02.511Z,86.36
2017-10-28T01:15:08.536Z,85.72
2017-10-28T01:16:14.568Z,85.99
2017-10-28T01:17:21.503Z,85.71
2017-10-28T01:18:27.530Z,85.79
2017-10-28T01:19:33.190Z,85.80
2017-10-28T01:20:39.263Z,85.62
2017-10-28T01:21:44.985Z,85.83
2017-10-28T01:22:50.861Z,86.02
2017-10-28T01:23:56.890Z,85.75
2017-10-28T01:25:02.944Z,85.42
2017-10-28T01:26:09.084Z,85.52
2017-10-28T01:27:15.239Z,85.35
2017-10-28T01:28:21.273Z,85.87
2017-10-28T01:29:26.949Z,86.13
2017-10-28T01:30:32.998Z,86.23
2017-10-28T01:31:39.116Z,86.00
2017-10-28T01:32:45.216Z,85.50
2017-10-28T01:33:51.242Z,85.32
2017-10-28T01:34:57.306Z,85.23
2017-10-28T01:36:03.332Z,84.80
2017-10-28T01:37:09.408Z,84.41
2017-10-28T01:38:15.452Z,84.38
2017-10-28T01:39:21.482Z,84.63
2017-10-28T01:40:29.741Z,84.40
2017-10-28T01:41:35.798Z,84.34
2017-10-28T01:42:41.848Z,83.95
2017-10-28T01:43:50.174Z,84.16
2017-10-28T01:44:56.208Z,84.78
2017-10-28T01:46:02.237Z,84.80
2017-10-28T01:47:08.873Z,84.40
2017-10-28T01:48:14.908Z,84.00
2017-10-28T01:49:20.930Z,83.78
2017-10-28T01:50:27.194Z,83.50
2017-10-28T01:51:33.231Z,83.25
2017-10-28T01:52:39.348Z,83.02
2017-10-28T01:53:45.435Z,83.00
2017-10-28T01:54:51.451Z,82.98
2017-10-28T01:55:57.470Z,82.88
2017-10-28T01:57:03.514Z,82.58
2017-10-28T01:58:09.562Z,82.56
2017-10-28T01:59:26.161Z,82.72
2017-10-28T02:00:43.636Z,83.05
2017-10-28T02:01:50.950Z,83.52
2017-10-28T02:02:57.024Z,82.89
2017-10-28T02:04:03.071Z,83.30
2017-10-28T02:05:08.893Z,83.64
2017-10-28T02:06:14.929Z,83.90
2017-10-28T02:07:20.986Z,84.04
2017-10-28T02:08:27.017Z,83.96
2017-10-28T02:09:33.045Z,84.31
2017-10-28T02:10:39.072Z,84.30
2017-10-28T02:11:45.203Z,84.59
2017-10-28T02:12:51.261Z,84.70
2017-10-28T02:13:57.330Z,84.78
2017-10-28T02:15:03.354Z,84.58
2017-10-28T02:16:09.396Z,84.69
2017-10-28T02:17:15.450Z,84.51
2017-10-28T02:18:21.490Z,84.31
2017-10-28T02:19:27.547Z,84.45
2017-10-28T02:20:33.591Z,84.62
2017-10-28T02:21:39.321Z,84.60
2017-10-28T02:22:45.399Z,84.85
2017-10-28T02:23:51.428Z,84.97
2017-10-28T02:24:57.525Z,85.12
2017-10-28T02:26:03.578Z,84.96
2017-10-28T02:27:09.626Z,84.87
2017-10-28T02:28:15.688Z,85.39
2017-10-28T02:29:21.839Z,85.17
2017-10-28T02:30:27.913Z,85.26
2017-10-28T02:31:33.967Z,85.29
2017-10-28T02:32:40.229Z,85.64
2017-10-28T02:33:46.287Z,85.68
2017-10-28T02:34:52.321Z,85.13
2017-10-28T02:35:58.430Z,85.00
2017-10-28T02:37:04.484Z,84.82
2017-10-28T02:38:10.730Z,84.72
2017-10-28T02:39:16.765Z,84.43
2017-10-28T02:40:22.818Z,84.80
2017-10-28T02:41:28.835Z,84.74
2017-10-28T02:42:35.036Z,84.61
2017-10-28T02:43:41.066Z,84.43
2017-10-28T02:44:47.116Z,84.32
2017-10-28T02:45:53.149Z,84.31
2017-10-28T02:46:59.193Z,84.40
2017-10-28T02:48:05.273Z,84.24
2017-10-28T02:49:11.311Z,84.52
2017-10-28T02:50:17.379Z,84.67
2017-10-28T02:51:23.400Z,84.65
2017-10-28T02:52:32.184Z,84.38
2017-10-28T02:53:38.241Z,84.13
2017-10-28T02:54:44.277Z,84.23
2017-10-28T02:55:50.319Z,84.34
2017-10-28T02:56:56.348Z,84.36
2017-10-28T02:58:02.447Z,84.42
2017-10-28T02:59:08.487Z,83.98
2017-10-28T03:00:13.817Z,83.66
2017-10-28T03:01:19.256Z,83.33
2017-10-28T03:02:25.272Z,82.95
2017-10-28T03:03:30.968Z,82.97
2017-10-28T03:04:37.028Z,83.23
2017-10-28T03:05:43.323Z,83.58
2017-10-28T03:06:49.945Z,83.56
2017-10-28T03:07:55.666Z,83.74
2017-10-28T03:09:01.769Z,83.61
2017-10-28T03:10:07.891Z,83.25
2017-10-28T03:11:13.195Z,83.03
2017-10-28T03:12:19.237Z,82.84
2017-10-28T03:13:25.278Z,82.86
2017-10-28T03:14:30.981Z,83.19
2017-10-28T03:15:36.990Z,83.24
2017-10-28T03:16:43.062Z,83.50
2017-10-28T03:17:49.117Z,83.46
2017-10-28T03:18:55.234Z,83.49
2017-10-28T03:20:01.226Z,83.08
2017-10-28T03:21:07.287Z,82.27
2017-10-28T03:22:14.901Z,82.38
2017-10-28T03:23:22.210Z,82.65
2017-10-28T03:24:28.281Z,82.57
2017-10-28T03:25:34.357Z,82.46
2017-10-28T03:26:40.445Z,82.66
2017-10-28T03:27:46.804Z,82.88
2017-10-28T03:28:52.874Z,83.06
2017-10-28T03:29:58.534Z,82.82
2017-10-28T03:31:04.555Z,82.97
2017-10-28T03:32:10.600Z,83.22
2017-10-28T03:33:16.650Z,83.23
2017-10-28T03:34:22.670Z,82.99
2017-10-28T03:35:28.685Z,83.13
2017-10-28T03:36:34.705Z,83.39
2017-10-28T03:37:40.724Z,83.52
2017-10-28T03:38:46.810Z,83.15
2017-10-28T03:39:52.841Z,82.88
2017-10-28T03:40:58.888Z,83.19
2017-10-28T03:42:04.929Z,83.27
2017-10-28T03:43:15.406Z,83.67
2017-10-28T03:44:24.885Z,83.65
2017-10-28T03:45:30.935Z,83.25
2017-10-28T03:46:36.977Z,82.94
2017-10-28T03:47:43.063Z,82.83
2017-10-28T03:48:49.140Z,82.67
2017-10-28T03:49:55.205Z,83.26
2017-10-28T03:51:01.263Z,83.45
2017-10-28T03:52:07.290Z,83.56
2017-10-28T03:53:13.359Z,83.49
2017-10-28T03:54:19.407Z,82.76
2017-10-28T03:55:25.431Z,82.94
2017-10-28T03:56:31.469Z,83.02
2017-10-28T03:57:38.314Z,82.89
2017-10-28T03:58:44.382Z,82.94
2017-10-28T03:59:50.407Z,82.99
2017-10-28T04:00:58.539Z,82.89
2017-10-28T04:02:11.081Z,82.65
2017-10-28T04:03:18.051Z,82.29
2017-10-28T04:04:24.094Z,82.72
2017-10-28T04:05:30.105Z,82.73
2017-10-28T04:06:36.114Z,82.78
2017-10-28T04:07:42.186Z,82.53
2017-10-28T04:08:48.095Z,82.56
2017-10-28T04:09:54.159Z,82.31
2017-10-28T04:11:01.818Z,82.48
2017-10-28T04:12:07.865Z,82.55
2017-10-28T04:13:13.881Z,82.81
2017-10-28T04:14:19.938Z,82.38
2017-10-28T04:15:26.017Z,82.61
2017-10-28T04:16:32.059Z,82.82
2017-10-28T04:17:37.945Z,82.52
2017-10-28T04:18:44.055Z,82.32
2017-10-28T04:19:52.397Z,82.37
2017-10-28T04:20:58.447Z,82.12
2017-10-28T04:22:04.482Z,82.22
2017-10-28T04:23:10.526Z,81.92
2017-10-28T04:24:16.579Z,81.91
2017-10-28T04:25:22.894Z,81.85
2017-10-28T04:26:28.913Z,81.87
2017-10-28T04:27:34.936Z,81.78
2017-10-28T04:28:40.966Z,82.18
2017-10-28T04:29:47.021Z,81.61
2017-10-28T04:30:53.022Z,81.73
2017-10-28T04:31:59.080Z,81.80
2017-10-28T04:33:04.754Z,81.74
2017-10-28T04:34:10.446Z,81.66
2017-10-28T04:35:16.130Z,81.71
2017-10-28T04:36:27.112Z,81.37
2017-10-28T04:37:33.153Z,81.39
2017-10-28T04:38:39.181Z,81.60
2017-10-28T04:39:44.876Z,81.86
2017-10-28T04:40:50.915Z,82.01
2017-10-28T04:41:56.987Z,81.78
2017-10-28T04:43:03.021Z,81.79
2017-10-28T04:44:09.028Z,81.70
2017-10-28T04:45:15.442Z,82.28
2017-10-28T04:46:21.499Z,82.45
2017-10-28T04:47:27.528Z,82.65
2017-10-28T04:48:33.567Z,82.98
2017-10-28T04:49:39.604Z,83.13
2017-10-28T04:50:45.623Z,83.02
2017-10-28T04:51:51.661Z,83.97
2017-10-28T04:52:57.719Z,84.19
2017-10-28T04:54:03.758Z,84.66
2017-10-28T04:55:09.803Z,85.18
2017-10-28T04:56:15.831Z,84.22
2017-10-28T04:57:21.868Z,83.95
2017-10-28T04:58:28.591Z,83.64
2017-10-28T04:59:35.457Z,83.22
2017-10-28T05:00:41.319Z,82.71
2017-10-28T05:01:47.369Z,82.96
2017-10-28T05:02:53.405Z,83.59
2017-10-28T05:03:59.477Z,83.85
2017-10-28T05:05:05.537Z,83.67
2017-10-28T05:06:18.328Z,83.77
2017-10-28T05:07:27.601Z,83.77
2017-10-28T05:08:33.631Z,84.05
2017-10-28T05:09:39.694Z,84.39
2017-10-28T05:10:45.749Z,84.99
2017-10-28T05:11:51.412Z,85.10
2017-10-28T05:12:58.267Z,85.33
2017-10-28T05:14:03.929Z,85.17
2017-10-28T05:15:09.982Z,85.87
2017-10-28T05:16:15.638Z,86.02
2017-10-28T05:17:24.680Z,86.26
2017-10-28T05:18:30.799Z,86.08
2017-10-28T05:19:36.849Z,85.93
2017-10-28T05:20:42.891Z,86.43
2017-10-28T05:21:52.452Z,86.26
2017-10-28T05:22:58.500Z,86.17
2017-10-28T05:24:04.529Z,86.20
2017-10-28T05:25:10.038Z,86.23
2017-10-28T05:26:19.050Z,86.20
2017-10-28T05:27:26.654Z,85.77
2017-10-28T05:28:32.666Z,85.84
2017-10-28T05:29:38.863Z,86.42
2017-10-28T05:30:44.912Z,86.03
2017-10-28T05:31:50.963Z,85.92
2017-10-28T05:32:56.985Z,86.02
2017-10-28T05:34:03.031Z,85.68
2017-10-28T05:35:09.099Z,85.51
2017-10-28T05:36:15.308Z,85.36
2017-10-28T05:37:21.357Z,85.76
2017-10-28T05:38:27.387Z,85.43
2017-10-28T05:39:33.401Z,85.22
2017-10-28T05:40:39.465Z,85.35
2017-10-28T05:41:44.790Z,85.26
2017-10-28T05:42:50.436Z,84.89
2017-10-28T05:43:56.463Z,84.90
2017-10-28T05:45:02.521Z,85.08
2017-10-28T05:46:07.842Z,84.90
2017-10-28T05:47:12.968Z,84.61
2017-10-28T05:48:18.829Z,84.81
2017-10-28T05:49:24.850Z,85.14
2017-10-28T05:50:30.668Z,85.10
2017-10-28T05:51:36.342Z,85.29
2017-10-28T05:52:42.001Z,85.07
2017-10-28T05:53:48.109Z,84.74
2017-10-28T05:54:54.137Z,84.60
2017-10-28T05:56:00.217Z,84.65
2017-10-28T05:57:05.546Z,84.10
2017-10-28T05:58:11.236Z,84.41
2017-10-28T05:59:17.261Z,84.55
2017-10-28T06:00:23.335Z,84.46
2017-10-28T06:01:28.464Z,83.98
2017-10-28T06:02:34.490Z,84.16
2017-10-28T06:03:43.430Z,84.06
2017-10-28T06:04:52.940Z,84.33
2017-10-28T06:05:59.039Z,84.15
2017-10-28T06:07:05.063Z,83.82
2017-10-28T06:08:11.096Z,83.71
2017-10-28T06:09:17.133Z,83.36
2017-10-28T06:10:23.227Z,83.25
2017-10-28T06:11:29.286Z,82.97
2017-10-28T06:12:37.643Z,82.95
2017-10-28T06:13:43.703Z,82.91
2017-10-28T06:14:49.768Z,83.00
2017-10-28T06:15:55.839Z,82.78
2017-10-28T06:17:01.891Z,83.00
2017-10-28T06:18:07.949Z,83.16
2017-10-28T06:19:14.003Z,83.33
2017-10-28T06:20:20.081Z,83.68
2017-10-28T06:21:26.425Z,83.89
2017-10-28T06:22:32.464Z,84.22
2017-10-28T06:23:38.547Z,84.18
2017-10-28T06:24:44.690Z,84.26
2017-10-28T06:25:50.752Z,84.30
2017-10-28T06:26:57.774Z,84.26
2017-10-28T06:28:03.461Z,84.17
2017-10-28T06:29:09.535Z,84.05
2017-10-28T06:30:15.701Z,83.83
2017-10-28T06:31:21.761Z,84.11
2017-10-28T06:32:27.808Z,84.10
2017-10-28T06:33:33.869Z,84.06
2017-10-28T06:34:39.916Z,84.06
2017-10-28T06:35:46.017Z,83.88
2017-10-28T06:36:52.061Z,83.46
2017-10-28T06:37:58.089Z,83.25
2017-10-28T06:39:03.745Z,83.47
2017-10-28T06:40:09.882Z,83.52
2017-10-28T06:41:15.951Z,83.20
2017-10-28T06:42:22.596Z,83.13
2017-10-28T06:43:28.802Z,82.93
2017-10-28T06:44:35.375Z,82.97
2017-10-28T06:45:41.907Z,82.70
2017-10-28T06:46:48.548Z,82.21
2017-10-28T06:47:55.005Z,81.62
2017-10-28T06:49:01.538Z,81.64
2017-10-28T06:50:08.704Z,81.94
2017-10-28T06:51:15.602Z,82.17
2017-10-28T06:52:22.317Z,81.94
2017-10-28T06:53:28.886Z,81.77
2017-10-28T06:54:35.269Z,81.48
2017-10-28T06:55:42.259Z,81.05
2017-10-28T06:56:48.801Z,81.12
2017-10-28T06:57:55.273Z,80.84
2017-10-28T06:59:03.624Z,80.58
2017-10-28T07:00:10.351Z,80.49
2017-10-28T07:01:16.574Z,80.41
2017-10-28T07:02:23.330Z,80.12
2017-10-28T07:03:29.789Z,80.11
2017-10-28T07:04:36.410Z,79.89
2017-10-28T07:05:42.845Z,79.78
2017-10-28T07:06:50.189Z,79.35
2017-10-28T07:07:56.654Z,79.77
2017-10-28T07:09:04.892Z,79.20
2017-10-28T07:10:11.270Z,78.77
2017-10-28T07:11:16.647Z,78.76
2017-10-28T07:12:24.497Z,78.66
2017-10-28T07:13:30.974Z,78.58
2017-10-28T07:14:37.620Z,78.50
2017-10-28T07:15:44.055Z,78.70
2017-10-28T07:16:50.595Z,78.42
2017-10-28T07:17:57.184Z,78.52
2017-10-28T07:19:02.889Z,78.19
2017-10-28T07:20:08.953Z,78.45
2017-10-28T07:21:15.242Z,78.29
2017-10-28T07:22:21.452Z,78.66
2017-10-28T07:23:28.023Z,78.19
2017-10-28T07:24:34.384Z,78.07
2017-10-28T07:25:41.135Z,77.55
2017-10-28T07:26:48.164Z,77.56
2017-10-28T07:27:54.498Z,77.06
2017-10-28T07:29:01.061Z,76.70
2017-10-28T07:30:07.601Z,76.75
2017-10-28T07:31:14.319Z,76.70
2017-10-28T07:32:23.089Z,76.72
2017-10-28T07:33:31.934Z,77.11
2017-10-28T07:34:39.018Z,77.07
2017-10-28T07:35:45.772Z,76.91
2017-10-28T07:36:52.509Z,76.85
2017-10-28T07:37:59.045Z,76.54
2017-10-28T07:39:04.534Z,76.40
2017-10-28T07:40:11.511Z,76.58
2017-10-28T07:41:18.158Z,76.46
2017-10-28T07:42:26.695Z,76.50
2017-10-28T07:43:33.130Z,76.46
2017-10-28T07:44:39.857Z,76.09
2017-10-28T07:45:46.345Z,76.11
2017-10-28T07:46:52.609Z,76.08
2017-10-28T07:47:59.314Z,75.86
2017-10-28T07:49:05.871Z,75.75
2017-10-28T07:50:13.789Z,75.66
2017-10-28T07:51:20.461Z,75.66
2017-10-28T07:52:27.857Z,75.60
2017-10-28T07:53:34.781Z,75.05
2017-10-28T07:54:41.418Z,75.22
2017-10-28T07:55:53.456Z,75.26
2017-10-28T07:56:59.805Z,75.35
2017-10-28T07:58:07.266Z,75.58
2017-10-28T07:59:13.735Z,75.54
2017-10-28T08:00:20.913Z,75.69
2017-10-28T08:01:27.849Z,75.67
2017-10-28T08:02:34.330Z,75.45
2017-10-28T08:03:46.473Z,75.48
2017-10-28T08:04:55.139Z,75.10
2017-10-28T08:06:06.223Z,75.38
2017-10-28T08:07:17.590Z,75.33
2017-10-28T08:08:24.560Z,75.49
2017-10-28T08:09:30.590Z,75.79
2017-10-28T08:10:36.643Z,75.82
2017-10-28T08:11:42.658Z,75.66
2017-10-28T08:12:48.722Z,76.10
2017-10-28T08:13:55.001Z,76.00
2017-10-28T08:15:02.198Z,76.02
2017-10-28T08:16:08.286Z,75.92
2017-10-28T08:17:13.636Z,76.17
2017-10-28T08:18:20.057Z,76.29
2017-10-28T08:19:26.181Z,76.47
2017-10-28T08:20:32.251Z,76.52
2017-10-28T08:21:38.255Z,76.36
2017-10-28T08:22:44.329Z,76.54
2017-10-28T08:23:50.358Z,76.83
2017-10-28T08:24:56.412Z,76.77
2017-10-28T08:26:02.518Z,76.78
2017-10-28T08:27:08.564Z,76.82
2017-10-28T08:28:14.704Z,76.76
2017-10-28T08:29:20.746Z,76.39
2017-10-28T08:30:26.776Z,76.51
2017-10-28T08:31:32.801Z,76.03
2017-10-28T08:32:38.871Z,76.05
2017-10-28T08:33:45.436Z,75.94
2017-10-28T08:34:51.494Z,75.88
2017-10-28T08:35:57.366Z,75.74
2017-10-28T08:37:03.478Z,76.08
2017-10-28T08:38:09.533Z,76.13
2017-10-28T08:39:15.597Z,76.12
2017-10-28T08:40:21.616Z,76.17
2017-10-28T08:41:27.645Z,76.13
2017-10-28T08:42:33.470Z,76.22
2017-10-28T08:43:39.512Z,75.75
2017-10-28T08:44:45.209Z,75.73
2017-10-28T08:45:51.236Z,75.81
2017-10-28T08:46:57.264Z,75.38
2017-10-28T08:48:03.308Z,75.37
2017-10-28T08:49:08.968Z,75.37
2017-10-28T08:50:15.043Z,75.16
2017-10-28T08:51:21.114Z,74.90
2017-10-28T08:52:27.161Z,75.21
2017-10-28T08:53:33.222Z,75.30
2017-10-28T08:54:39.310Z,75.32
2017-10-28T08:55:45.874Z,75.41
2017-10-28T08:56:51.964Z,75.08
2017-10-28T08:57:58.071Z,74.94
2017-10-28T08:59:04.148Z,75.09
2017-10-28T09:00:10.022Z,74.74
2017-10-28T09:01:15.873Z,75.06
2017-10-28T09:02:21.702Z,74.61
2017-10-28T09:03:27.755Z,74.64
2017-10-28T09:04:33.855Z,74.48
2017-10-28T09:05:40.107Z,74.29
2017-10-28T09:06:46.145Z,74.06
2017-10-28T09:07:52.176Z,73.71
2017-10-28T09:08:58.226Z,73.67
2017-10-28T09:10:03.937Z,73.76
2017-10-28T09:11:10.012Z,73.89
2017-10-28T09:12:15.672Z,73.46
2017-10-28T09:13:21.549Z,73.71
2017-10-28T09:14:27.993Z,73.62
2017-10-28T09:15:34.115Z,73.46
2017-10-28T09:16:40.709Z,73.07
2017-10-28T09:17:46.789Z,72.85
2017-10-28T09:18:56.042Z,73.10
2017-10-28T09:20:01.962Z,73.40
2017-10-28T09:21:08.031Z,73.13
2017-10-28T09:22:13.753Z,73.55
2017-10-28T09:26:32.387Z,72.94
2017-10-28T09:27:38.521Z,73.29
2017-10-28T09:28:45.412Z,73.74
2017-10-28T09:29:51.507Z,73.50
2017-10-28T09:32:38.262Z,73.47
2017-10-28T09:33:44.386Z,73.80
2017-10-28T09:34:50.614Z,73.42
2017-10-28T09:35:57.468Z,73.38
2017-10-28T09:37:06.113Z,73.78
2017-10-28T09:38:16.205Z,73.75
2017-10-28T09:39:25.390Z,74.03
2017-10-28T09:40:33.558Z,73.76
2017-10-28T09:41:40.288Z,73.57
2017-10-28T09:42:47.697Z,73.43
2017-10-28T09:43:57.263Z,73.43
2017-10-28T09:45:04.970Z,73.09
2017-10-28T09:46:12.219Z,73.51
2017-10-28T09:47:18.067Z,73.35
2017-10-28T09:48:24.102Z,73.08
2017-10-28T09:49:30.158Z,73.47
2017-10-28T09:50:36.214Z,73.52
2017-10-28T09:51:42.297Z,73.75
2017-10-28T09:52:48.347Z,73.65
2017-10-28T09:53:54.446Z,73.92
2017-10-28T09:55:00.307Z,73.92
2017-10-28T09:56:06.369Z,73.68
2017-10-28T09:57:13.218Z,74.07
2017-10-28T09:58:20.598Z,74.20
2017-10-28T09:59:27.611Z,74.09
2017-10-28T10:00:33.662Z,74.01
2017-10-28T10:01:40.319Z,73.75
2017-10-28T10:02:48.644Z,73.48
2017-10-28T10:03:54.744Z,73.70
2017-10-28T10:05:00.791Z,74.32
2017-10-28T10:06:06.863Z,74.18
2017-10-28T10:07:12.912Z,74.34
2017-10-28T10:08:18.962Z,74.27
2017-10-28T10:09:25.071Z,74.22
2017-10-28T10:10:31.117Z,73.57
2017-10-28T10:11:37.246Z,73.87
2017-10-28T10:12:43.345Z,73.75
2017-10-28T10:13:49.405Z,73.62
2017-10-28T10:14:55.466Z,73.67
2017-10-28T10:16:01.517Z,73.75
2017-10-28T10:17:07.560Z,73.77
2017-10-28T10:18:13.679Z,74.03
2017-10-28T10:19:28.304Z,73.76
2017-10-28T10:20:34.392Z,74.11
2017-10-28T10:21:42.671Z,73.58
2017-10-28T10:22:48.704Z,73.30
2017-10-28T10:23:54.747Z,73.49
2017-10-28T10:25:00.790Z,73.35
2017-10-28T10:26:06.863Z,73.02
2017-10-28T10:27:12.899Z,73.07
2017-10-28T10:28:19.235Z,72.92
2017-10-28T10:29:25.480Z,73.10
2017-10-28T10:30:31.845Z,72.91
2017-10-28T10:31:38.202Z,72.83
2017-10-28T10:32:44.240Z,72.94
2017-10-28T10:33:50.291Z,72.71
2017-10-28T10:34:56.319Z,72.50
2017-10-28T10:36:02.650Z,72.43
2017-10-28T10:37:08.775Z,72.64
2017-10-28T10:38:14.878Z,72.32
2017-10-28T10:39:20.912Z,72.33
2017-10-28T10:40:27.001Z,72.53
2017-10-28T10:41:33.057Z,72.52
2017-10-28T10:42:39.096Z,72.49
2017-10-28T10:43:45.200Z,72.47
2017-10-28T10:44:51.263Z,72.46
2017-10-28T10:45:57.790Z,72.76
2017-10-28T10:47:03.810Z,72.34
2017-10-28T10:48:09.887Z,72.03
2017-10-28T10:49:18.831Z,72.16
2017-10-28T10:50:24.728Z,71.99
2017-10-28T10:51:30.802Z,71.25
2017-10-28T10:52:37.008Z,71.57
2017-10-28T10:53:46.490Z,71.50
2017-10-28T10:54:58.269Z,71.69
2017-10-28T10:57:48.512Z,71.75
2017-10-28T10:58:55.737Z,71.70
2017-10-28T11:00:04.306Z,71.47
2017-10-28T11:02:52.473Z,71.20
2017-10-28T11:03:59.587Z,71.25
2017-10-28T11:05:06.013Z,71.54
2017-10-28T11:06:12.480Z,71.57
2017-10-28T11:07:19.265Z,71.40
2017-10-28T11:08:26.243Z,71.57
2017-10-28T11:09:32.442Z,71.91
2017-10-28T11:10:39.196Z,71.81
2017-10-28T11:11:45.438Z,72.07
2017-10-28T11:12:52.909Z,72.14
2017-10-28T11:13:59.723Z,72.12
2017-10-28T11:15:05.502Z,72.27
2017-10-28T11:16:11.612Z,72.00
2017-10-28T11:17:18.433Z,71.66
2017-10-28T11:18:26.614Z,71.69
2017-10-28T11:19:33.217Z,71.39
2017-10-28T11:20:39.310Z,71.32
2017-10-28T11:21:51.119Z,71.02
2017-10-28T11:22:57.799Z,71.06
2017-10-28T11:24:04.177Z,71.15
2017-10-28T11:25:10.388Z,71.44
2017-10-28T11:26:17.169Z,71.27
2017-10-28T11:27:23.584Z,71.41
2017-10-28T11:28:30.018Z,71.84
2017-10-28T11:29:36.095Z,71.31
2017-10-28T11:30:42.130Z,71.50
2017-10-28T11:31:50.165Z,71.15
2017-10-28T11:32:56.279Z,71.41
2017-10-28T11:34:03.129Z,71.62
2017-10-28T11:35:10.159Z,71.43
2017-10-28T11:36:18.266Z,71.10
2017-10-28T11:37:24.686Z,70.78
2017-10-28T11:38:31.272Z,70.84
2017-10-28T11:39:37.365Z,71.00
2017-10-28T11:40:44.122Z,70.74
2017-10-28T11:41:50.954Z,70.87
2017-10-28T11:43:02.831Z,70.90
2017-10-28T11:44:09.433Z,71.30
2017-10-28T11:45:16.305Z,71.21
2017-10-28T11:46:23.220Z,71.08
2017-10-28T11:49:30.126Z,71.28
2017-10-28T11:50:45.429Z,71.71
2017-10-28T11:53:54.015Z,71.78
2017-10-28T11:55:07.699Z,71.05
2017-10-28T11:56:13.804Z,71.27
2017-10-28T11:57:20.043Z,71.44
2017-10-28T12:09:24.122Z,71.78
2017-10-28T12:10:30.376Z,71.59
2017-10-28T12:11:36.474Z,71.73
2017-10-28T12:12:42.547Z,71.69
2017-10-28T12:13:48.599Z,71.25
2017-10-28T12:14:54.675Z,71.14
2017-10-28T12:16:00.979Z,71.28
2017-10-28T12:17:06.915Z,71.10
2017-10-28T12:18:12.997Z,71.00
2017-10-28T12:19:19.086Z,71.02
2017-10-28T12:20:25.158Z,71.70
2017-10-28T12:21:31.273Z,71.04
2017-10-28T12:22:37.333Z,71.18
2017-10-28T12:23:44.158Z,70.67
2017-10-28T12:24:54.062Z,70.72
2017-10-28T12:26:01.364Z,70.22
2017-10-28T12:27:08.830Z,70.36
2017-10-28T12:28:15.467Z,70.06
2017-10-28T12:29:21.698Z,70.30
2017-10-28T12:30:27.745Z,70.37
2017-10-28T12:31:33.840Z,70.42
2017-10-28T12:32:39.923Z,70.05
2017-10-28T12:33:45.977Z,70.43
2017-10-28T12:34:52.028Z,70.75
2017-10-28T12:35:58.118Z,70.62
2017-10-28T12:37:04.193Z,70.22
2017-10-28T12:38:10.859Z,70.61
2017-10-28T12:39:16.899Z,70.24
2017-10-28T12:40:22.918Z,70.74
2017-10-28T12:41:28.997Z,69.98
2017-10-28T12:42:35.094Z,70.21
2017-10-28T12:43:41.164Z,69.96
2017-10-28T12:44:47.208Z,69.90
2017-10-28T12:45:55.450Z,70.21
2017-10-28T12:47:02.512Z,70.12
2017-10-28T12:48:08.601Z,70.14
2017-10-28T12:49:14.714Z,70.20
2017-10-28T12:50:20.768Z,70.08
2017-10-28T12:51:26.861Z,70.13
2017-10-28T12:52:32.954Z,70.06
2017-10-28T12:53:39.041Z,70.19
2017-10-28T12:54:45.094Z,70.06
2017-10-28T12:55:51.154Z,70.34
2017-10-28T12:56:57.236Z,69.99
2017-10-28T12:58:03.339Z,69.88
2017-10-28T12:59:09.403Z,69.96
2017-10-28T13:00:15.266Z,69.68
2017-10-28T13:01:21.344Z,69.71
2017-10-28T13:02:27.412Z,69.33
2017-10-28T13:03:33.498Z,69.69
2017-10-28T13:04:39.564Z,69.64
2017-10-28T13:05:45.665Z,69.48
2017-10-28T13:06:59.704Z,69.34
2017-10-28T13:08:05.793Z,69.38
2017-10-28T13:09:11.920Z,69.39
2017-10-28T13:10:18.017Z,69.70
2017-10-28T13:11:24.121Z,69.68
2017-10-28T13:12:30.239Z,69.71
2017-10-28T13:13:36.316Z,69.59
2017-10-28T13:14:42.383Z,69.72
2017-10-28T13:15:48.456Z,70.12
2017-10-28T13:16:54.541Z,70.10
2017-10-28T13:18:00.652Z,70.11
2017-10-28T13:19:07.099Z,70.31
2017-10-28T13:20:13.175Z,70.49
2017-10-28T13:21:19.352Z,70.37
2017-10-28T13:22:25.469Z,70.24
2017-10-28T13:23:31.595Z,70.19
2017-10-28T13:24:39.721Z,70.07
2017-10-28T13:25:45.858Z,70.37
2017-10-28T13:26:52.521Z,70.29
2017-10-28T13:27:59.431Z,70.35
2017-10-28T13:29:08.574Z,70.46
2017-10-28T13:30:14.683Z,70.56
2017-10-28T13:31:20.765Z,70.49
2017-10-28T13:32:26.820Z,70.07
2017-10-28T13:33:32.929Z,70.00
2017-10-28T13:34:39.021Z,70.43
2017-10-28T13:35:45.099Z,70.66
2017-10-28T13:36:51.228Z,70.14
2017-10-28T13:37:57.718Z,70.88
2017-10-28T13:39:03.457Z,70.40
2017-10-28T13:40:09.558Z,70.67
2017-10-28T13:41:15.651Z,70.23
2017-10-28T13:42:21.731Z,70.18
2017-10-28T13:43:27.823Z,70.22
2017-10-28T13:44:33.922Z,70.18
2017-10-28T13:45:40.008Z,70.20
2017-10-28T13:46:46.117Z,69.95
2017-10-28T13:47:52.200Z,70.09
2017-10-28T13:48:58.443Z,69.83
2017-10-28T13:50:06.354Z,69.84
2017-10-28T13:51:12.475Z,70.12
2017-10-28T13:52:17.809Z,69.75
2017-10-28T13:53:23.904Z,70.08
2017-10-28T13:54:30.030Z,69.94
2017-10-28T13:55:38.001Z,70.00
2017-10-28T13:56:44.176Z,69.99
2017-10-28T13:57:49.910Z,69.66
2017-10-28T13:58:56.016Z,69.34
2017-10-28T14:00:05.544Z,69.43
2017-10-28T14:01:11.613Z,69.67
2017-10-28T14:02:17.715Z,69.89
2017-10-28T14:03:23.824Z,69.91
2017-10-28T14:04:29.947Z,69.77
2017-10-28T14:05:36.063Z,69.60
2017-10-28T14:06:42.194Z,69.49
2017-10-28T14:07:48.233Z,69.37
2017-10-28T14:08:54.307Z,69.48
2017-10-28T14:10:06.403Z,69.60
2017-10-28T14:11:14.179Z,69.74
2017-10-28T14:12:20.233Z,69.94
2017-10-28T14:13:26.267Z,69.82
2017-10-28T14:14:32.344Z,69.89
2017-10-28T14:15:38.402Z,69.93
2017-10-28T14:16:44.421Z,69.63
2017-10-28T14:17:50.470Z,69.37
2017-10-28T14:18:56.493Z,69.23
2017-10-28T14:20:02.626Z,69.48
2017-10-28T14:21:08.680Z,69.54
2017-10-28T14:22:14.723Z,69.82
2017-10-28T14:23:20.766Z,69.83
2017-10-28T14:24:26.947Z,69.47
2017-10-28T14:25:33.084Z,69.58
2017-10-28T14:26:39.232Z,69.83
2017-10-28T14:27:45.306Z,69.94
2017-10-28T14:28:51.412Z,70.31
2017-10-28T14:29:57.551Z,70.48
2017-10-28T14:31:04.724Z,70.33
2017-10-28T14:32:10.782Z,70.29
2017-10-28T14:33:16.810Z,70.35
2017-10-28T14:34:22.864Z,69.97
2017-10-28T14:35:28.959Z,69.85
2017-10-28T14:36:35.033Z,69.94
2017-10-28T14:37:41.090Z,70.09
2017-10-28T14:38:47.148Z,69.96
2017-10-28T14:39:53.259Z,70.02